Vondelwijk, Netherlands
Current Conditions -  °F | °C
As of 7:25 PM on Saturday 20 Dec 2014 (Local Time) from EHRD Reporting Station
Scattered Clouds Scattered Clouds  
Wind Chill: 40°   Ceiling: Unl
Heat Index: 46°   Visibility: 6mi
Dew Point: 39°   Wind: 15mph
Humidity: 76%   Direction: 290°WNW
Pressure: 30.21"   Gusts: NA
Location:  52.05°N, 4.65°E
Report Text: EHRD 201825Z AUTO 29013KT 9999 FEW031 SCT049 08/04 Q1023 TEMPO29020G30KT 7000 -SHRAGS
Loading
Personal Weather Stations






























Interactive Weather Map New forecast layout! Learn more

10-Day Weather Forecast

Advertisements
Track Severe Weather on mobile